WRO weather

Copernicus Wrocław Airport
Wrocław, Lower Silesia, Poland

Public forecast

Using degrees Celsius for public forecast. Weather courtesy of forecast.io.

Current aviation weather report (METAR) for Copernicus Wrocław Airport

Retrieved 2020/05/27 01:30 UTC (4 minutes ago):

EPWR 270130Z 27002KT 9999 MIFG NSC 05/05 Q1033

Aviation forecast (TAF) for Copernicus Wrocław Airport

Retrieved 2020-05-27 00:45 UTC (49 minutes ago):

TAF EPWR 262330Z 2700/2724 VRB02KT CAVOK TEMPO 2700/2705 2000 BR PROB40 TEMPO 2701/2704 0400 FG BECMG 2707/2709 32010KT BECMG 2719/2721 VRB02KT